sensor_id;sensor_type;location;lat;lon;timestamp;temperature;humidity
40434;DHT22;26146;51.114;5.654;2023-05-07T00:00:18;15.90;99.90
40434;DHT22;26146;51.114;5.654;2023-05-07T00:04:19;16.00;99.90
40434;DHT22;26146;51.114;5.654;2023-05-07T00:08:21;16.10;99.90
40434;DHT22;26146;51.114;5.654;2023-05-07T00:12:22;16.10;99.90
40434;DHT22;26146;51.114;5.654;2023-05-07T00:16:23;16.00;99.90
40434;DHT22;26146;51.114;5.654;2023-05-07T00:20:25;16.10;99.90
40434;DHT22;26146;51.114;5.654;2023-05-07T00:24:26;16.10;99.90
40434;DHT22;26146;51.114;5.654;2023-05-07T00:28:27;16.10;99.90
40434;DHT22;26146;51.114;5.654;2023-05-07T00:32:28;16.20;99.90
40434;DHT22;26146;51.114;5.654;2023-05-07T00:36:29;16.10;99.90
40434;DHT22;26146;51.114;5.654;2023-05-07T00:40:31;16.10;99.90
40434;DHT22;26146;51.114;5.654;2023-05-07T00:44:32;16.10;99.90
40434;DHT22;26146;51.114;5.654;2023-05-07T00:48:33;16.10;99.90
40434;DHT22;26146;51.114;5.654;2023-05-07T00:52:34;16.10;99.90
40434;DHT22;26146;51.114;5.654;2023-05-07T00:56:36;16.20;99.90
40434;DHT22;26146;51.114;5.654;2023-05-07T01:00:37;16.20;99.90
40434;DHT22;26146;51.114;5.654;2023-05-07T01:04:38;16.30;99.90
40434;DHT22;26146;51.114;5.654;2023-05-07T01:08:40;16.20;99.90
40434;DHT22;26146;51.114;5.654;2023-05-07T01:12:42;16.00;99.90
40434;DHT22;26146;51.114;5.654;2023-05-07T01:16:44;16.00;99.90
40434;DHT22;26146;51.114;5.654;2023-05-07T01:20:45;16.00;99.90
40434;DHT22;26146;51.114;5.654;2023-05-07T01:24:46;16.10;99.90
40434;DHT22;26146;51.114;5.654;2023-05-07T01:28:48;16.10;99.90
40434;DHT22;26146;51.114;5.654;2023-05-07T01:32:53;16.10;99.90
40434;DHT22;26146;51.114;5.654;2023-05-07T01:36:58;16.10;99.90
40434;DHT22;26146;51.114;5.654;2023-05-07T01:41:00;16.10;99.90
40434;DHT22;26146;51.114;5.654;2023-05-07T01:45:01;15.90;99.90
40434;DHT22;26146;51.114;5.654;2023-05-07T01:49:03;15.90;99.90
40434;DHT22;26146;51.114;5.654;2023-05-07T01:53:04;15.70;99.90
40434;DHT22;26146;51.114;5.654;2023-05-07T01:57:05;15.70;99.90
40434;DHT22;26146;51.114;5.654;2023-05-07T02:01:06;15.60;99.90
40434;DHT22;26146;51.114;5.654;2023-05-07T02:05:07;15.60;99.90
40434;DHT22;26146;51.114;5.654;2023-05-07T02:09:09;15.70;99.90
40434;DHT22;26146;51.114;5.654;2023-05-07T02:13:10;15.60;99.90
40434;DHT22;26146;51.114;5.654;2023-05-07T02:17:11;15.60;99.90
40434;DHT22;26146;51.114;5.654;2023-05-07T02:21:12;15.60;99.90
40434;DHT22;26146;51.114;5.654;2023-05-07T02:25:13;15.60;99.90
40434;DHT22;26146;51.114;5.654;2023-05-07T02:29:14;15.60;99.90
40434;DHT22;26146;51.114;5.654;2023-05-07T02:33:15;15.60;99.90
40434;DHT22;26146;51.114;5.654;2023-05-07T02:37:16;15.50;99.90
40434;DHT22;26146;51.114;5.654;2023-05-07T02:41:18;15.60;99.90
40434;DHT22;26146;51.114;5.654;2023-05-07T02:45:19;15.50;99.90
40434;DHT22;26146;51.114;5.654;2023-05-07T02:49:20;15.70;99.90
40434;DHT22;26146;51.114;5.654;2023-05-07T02:53:21;15.70;99.90
40434;DHT22;26146;51.114;5.654;2023-05-07T02:57:22;15.70;99.90
40434;DHT22;26146;51.114;5.654;2023-05-07T03:01:24;15.80;99.90
40434;DHT22;26146;51.114;5.654;2023-05-07T03:05:25;15.80;99.90
40434;DHT22;26146;51.114;5.654;2023-05-07T03:09:26;15.80;99.90
40434;DHT22;26146;51.114;5.654;2023-05-07T03:13:27;15.80;99.90
40434;DHT22;26146;51.114;5.654;2023-05-07T03:17:28;16.00;99.90
40434;DHT22;26146;51.114;5.654;2023-05-07T03:21:30;15.80;99.90
40434;DHT22;26146;51.114;5.654;2023-05-07T03:25:32;15.90;99.90
40434;DHT22;26146;51.114;5.654;2023-05-07T03:29:33;15.80;99.90
40434;DHT22;26146;51.114;5.654;2023-05-07T03:33:34;15.70;99.90
40434;DHT22;26146;51.114;5.654;2023-05-07T03:37:39;15.80;99.90
40434;DHT22;26146;51.114;5.654;2023-05-07T03:41:40;15.70;99.90
40434;DHT22;26146;51.114;5.654;2023-05-07T03:45:41;15.70;99.90
40434;DHT22;26146;51.114;5.654;2023-05-07T03:49:42;15.70;99.90
40434;DHT22;26146;51.114;5.654;2023-05-07T03:53:44;15.60;99.90
40434;DHT22;26146;51.114;5.654;2023-05-07T03:57:45;15.60;99.90
40434;DHT22;26146;51.114;5.654;2023-05-07T04:01:46;15.50;99.90
40434;DHT22;26146;51.114;5.654;2023-05-07T04:05:47;15.60;99.90
40434;DHT22;26146;51.114;5.654;2023-05-07T04:09:48;15.60;99.90
40434;DHT22;26146;51.114;5.654;2023-05-07T04:13:49;15.70;99.90
40434;DHT22;26146;51.114;5.654;2023-05-07T04:17:51;15.90;99.90
40434;DHT22;26146;51.114;5.654;2023-05-07T04:21:52;15.80;99.90
40434;DHT22;26146;51.114;5.654;2023-05-07T04:25:53;15.80;99.90
40434;DHT22;26146;51.114;5.654;2023-05-07T04:29:55;15.80;99.90
40434;DHT22;26146;51.114;5.654;2023-05-07T04:33:58;15.80;99.90
40434;DHT22;26146;51.114;5.654;2023-05-07T04:38:00;15.80;99.90
40434;DHT22;26146;51.114;5.654;2023-05-07T04:42:01;15.90;99.90
40434;DHT22;26146;51.114;5.654;2023-05-07T04:46:02;16.10;99.90
40434;DHT22;26146;51.114;5.654;2023-05-07T04:50:03;16.00;99.90
40434;DHT22;26146;51.114;5.654;2023-05-07T04:54:04;15.90;99.90
40434;DHT22;26146;51.114;5.654;2023-05-07T04:58:06;16.10;99.90
40434;DHT22;26146;51.114;5.654;2023-05-07T05:02:07;16.00;99.90
40434;DHT22;26146;51.114;5.654;2023-05-07T05:06:10;16.10;99.90
40434;DHT22;26146;51.114;5.654;2023-05-07T05:10:11;16.30;99.90
40434;DHT22;26146;51.114;5.654;2023-05-07T05:14:12;16.20;99.90
40434;DHT22;26146;51.114;5.654;2023-05-07T05:18:13;16.30;99.90
40434;DHT22;26146;51.114;5.654;2023-05-07T05:22:14;16.40;99.90
40434;DHT22;26146;51.114;5.654;2023-05-07T05:26:15;16.40;99.90
40434;DHT22;26146;51.114;5.654;2023-05-07T05:30:17;16.50;99.90
40434;DHT22;26146;51.114;5.654;2023-05-07T05:34:18;16.60;99.90
40434;DHT22;26146;51.114;5.654;2023-05-07T05:38:20;16.70;99.90
40434;DHT22;26146;51.114;5.654;2023-05-07T05:42:21;16.80;99.90
40434;DHT22;26146;51.114;5.654;2023-05-07T05:46:22;16.90;99.90
40434;DHT22;26146;51.114;5.654;2023-05-07T05:50:23;17.10;99.90
40434;DHT22;26146;51.114;5.654;2023-05-07T05:54:25;17.20;99.90
40434;DHT22;26146;51.114;5.654;2023-05-07T05:58:26;17.00;99.90
40434;DHT22;26146;51.114;5.654;2023-05-07T06:02:28;17.30;99.90
40434;DHT22;26146;51.114;5.654;2023-05-07T06:06:29;17.40;99.90
40434;DHT22;26146;51.114;5.654;2023-05-07T06:10:30;17.80;99.90
40434;DHT22;26146;51.114;5.654;2023-05-07T06:14:31;17.90;99.90
40434;DHT22;26146;51.114;5.654;2023-05-07T06:18:32;18.00;99.90
40434;DHT22;26146;51.114;5.654;2023-05-07T06:22:34;18.30;99.90
40434;DHT22;26146;51.114;5.654;2023-05-07T06:26:35;18.50;99.90
40434;DHT22;26146;51.114;5.654;2023-05-07T06:30:36;18.60;99.90
40434;DHT22;26146;51.114;5.654;2023-05-07T06:34:37;18.80;99.90
40434;DHT22;26146;51.114;5.654;2023-05-07T06:38:39;19.20;99.90
40434;DHT22;26146;51.114;5.654;2023-05-07T06:42:40;19.40;99.90
40434;DHT22;26146;51.114;5.654;2023-05-07T06:46:41;19.30;99.90
40434;DHT22;26146;51.114;5.654;2023-05-07T06:50:42;19.10;99.90
40434;DHT22;26146;51.114;5.654;2023-05-07T06:54:43;19.20;99.90
40434;DHT22;26146;51.114;5.654;2023-05-07T06:58:45;19.30;99.90
40434;DHT22;26146;51.114;5.654;2023-05-07T07:02:46;19.20;99.90
40434;DHT22;26146;51.114;5.654;2023-05-07T07:06:47;19.10;99.90
40434;DHT22;26146;51.114;5.654;2023-05-07T07:10:48;19.40;99.90
40434;DHT22;26146;51.114;5.654;2023-05-07T07:14:49;19.20;99.90
40434;DHT22;26146;51.114;5.654;2023-05-07T07:18:51;19.30;99.90
40434;DHT22;26146;51.114;5.654;2023-05-07T07:22:52;19.40;99.90
40434;DHT22;26146;51.114;5.654;2023-05-07T07:26:53;19.70;99.90
40434;DHT22;26146;51.114;5.654;2023-05-07T07:30:56;20.00;99.90
40434;DHT22;26146;51.114;5.654;2023-05-07T07:34:57;20.00;99.90
40434;DHT22;26146;51.114;5.654;2023-05-07T07:38:58;19.90;99.90
40434;DHT22;26146;51.114;5.654;2023-05-07T07:42:59;20.20;99.90
40434;DHT22;26146;51.114;5.654;2023-05-07T07:47:02;20.70;99.90
40434;DHT22;26146;51.114;5.654;2023-05-07T07:51:03;20.80;99.90
40434;DHT22;26146;51.114;5.654;2023-05-07T07:55:04;20.80;99.90
40434;DHT22;26146;51.114;5.654;2023-05-07T07:59:06;21.30;99.90
40434;DHT22;26146;51.114;5.654;2023-05-07T08:03:09;21.80;99.90
40434;DHT22;26146;51.114;5.654;2023-05-07T08:07:11;22.00;99.90
40434;DHT22;26146;51.114;5.654;2023-05-07T08:11:12;22.60;99.90
40434;DHT22;26146;51.114;5.654;2023-05-07T08:15:13;22.90;99.90
40434;DHT22;26146;51.114;5.654;2023-05-07T08:19:14;23.10;99.90
40434;DHT22;26146;51.114;5.654;2023-05-07T08:23:15;23.00;99.90
40434;DHT22;26146;51.114;5.654;2023-05-07T08:27:16;23.10;99.90
40434;DHT22;26146;51.114;5.654;2023-05-07T08:31:17;23.00;99.90
40434;DHT22;26146;51.114;5.654;2023-05-07T08:35:18;23.10;99.90
40434;DHT22;26146;51.114;5.654;2023-05-07T08:39:19;23.50;99.90
40434;DHT22;26146;51.114;5.654;2023-05-07T08:43:21;23.90;99.90
40434;DHT22;26146;51.114;5.654;2023-05-07T08:47:29;24.00;99.90
40434;DHT22;26146;51.114;5.654;2023-05-07T08:51:34;24.10;99.10
40434;DHT22;26146;51.114;5.654;2023-05-07T08:55:36;24.10;98.40
40434;DHT22;26146;51.114;5.654;2023-05-07T08:59:37;24.40;98.20
40434;DHT22;26146;51.114;5.654;2023-05-07T09:03:39;24.50;97.90
40434;DHT22;26146;51.114;5.654;2023-05-07T09:07:40;24.80;96.10
40434;DHT22;26146;51.114;5.654;2023-05-07T09:11:41;24.90;97.10
40434;DHT22;26146;51.114;5.654;2023-05-07T09:15:42;25.20;97.30
40434;DHT22;26146;51.114;5.654;2023-05-07T09:19:44;25.10;97.20
40434;DHT22;26146;51.114;5.654;2023-05-07T09:23:49;25.10;97.90
40434;DHT22;26146;51.114;5.654;2023-05-07T09:27:51;24.80;98.80
40434;DHT22;26146;51.114;5.654;2023-05-07T09:31:52;24.80;97.30
40434;DHT22;26146;51.114;5.654;2023-05-07T09:35:53;24.60;97.40
40434;DHT22;26146;51.114;5.654;2023-05-07T09:39:55;24.30;98.50
40434;DHT22;26146;51.114;5.654;2023-05-07T09:43:56;24.10;98.90
40434;DHT22;26146;51.114;5.654;2023-05-07T09:47:58;24.40;97.80
40434;DHT22;26146;51.114;5.654;2023-05-07T09:52:01;24.50;98.50
40434;DHT22;26146;51.114;5.654;2023-05-07T09:56:02;24.70;97.20
40434;DHT22;26146;51.114;5.654;2023-05-07T10:00:04;24.60;96.80
40434;DHT22;26146;51.114;5.654;2023-05-07T10:04:06;24.50;97.10
40434;DHT22;26146;51.114;5.654;2023-05-07T10:08:09;24.60;96.80
40434;DHT22;26146;51.114;5.654;2023-05-07T10:12:10;24.20;97.20
40434;DHT22;26146;51.114;5.654;2023-05-07T10:16:11;25.10;96.40
40434;DHT22;26146;51.114;5.654;2023-05-07T10:20:13;25.00;95.40
40434;DHT22;26146;51.114;5.654;2023-05-07T10:24:20;24.90;96.10
40434;DHT22;26146;51.114;5.654;2023-05-07T10:28:23;24.70;95.50
40434;DHT22;26146;51.114;5.654;2023-05-07T10:32:47;24.40;95.30
40434;DHT22;26146;51.114;5.654;2023-05-07T10:36:49;24.40;95.50
40434;DHT22;26146;51.114;5.654;2023-05-07T10:40:51;24.20;96.00
40434;DHT22;26146;51.114;5.654;2023-05-07T10:44:53;24.20;95.90
40434;DHT22;26146;51.114;5.654;2023-05-07T10:57:38;24.90;93.70
40434;DHT22;26146;51.114;5.654;2023-05-07T11:01:50;24.90;94.00
40434;DHT22;26146;51.114;5.654;2023-05-07T11:06:21;24.70;94.40
40434;DHT22;26146;51.114;5.654;2023-05-07T11:10:23;24.30;94.60
40434;DHT22;26146;51.114;5.654;2023-05-07T11:14:44;24.00;95.10
40434;DHT22;26146;51.114;5.654;2023-05-07T11:18:56;23.80;95.80
40434;DHT22;26146;51.114;5.654;2023-05-07T11:22:57;23.50;95.70
40434;DHT22;26146;51.114;5.654;2023-05-07T11:26:58;23.40;96.10
40434;DHT22;26146;51.114;5.654;2023-05-07T11:30:59;23.30;96.40
40434;DHT22;26146;51.114;5.654;2023-05-07T11:35:01;23.40;97.30
40434;DHT22;26146;51.114;5.654;2023-05-07T11:39:02;23.30;99.90
40434;DHT22;26146;51.114;5.654;2023-05-07T11:43:13;22.60;99.90
40434;DHT22;26146;51.114;5.654;2023-05-07T11:47:18;22.10;99.90
40434;DHT22;26146;51.114;5.654;2023-05-07T11:51:21;21.50;99.90
40434;DHT22;26146;51.114;5.654;2023-05-07T11:55:24;20.90;99.90
40434;DHT22;26146;51.114;5.654;2023-05-07T11:59:25;20.30;99.90
40434;DHT22;26146;51.114;5.654;2023-05-07T12:03:26;19.60;99.90
40434;DHT22;26146;51.114;5.654;2023-05-07T12:07:28;18.90;99.90
40434;DHT22;26146;51.114;5.654;2023-05-07T12:11:29;18.40;99.90
40434;DHT22;26146;51.114;5.654;2023-05-07T12:15:30;18.30;99.90
40434;DHT22;26146;51.114;5.654;2023-05-07T12:19:31;18.20;99.90
40434;DHT22;26146;51.114;5.654;2023-05-07T12:23:35;18.00;99.90
40434;DHT22;26146;51.114;5.654;2023-05-07T12:27:40;18.10;99.90
40434;DHT22;26146;51.114;5.654;2023-05-07T12:31:42;18.10;99.90
40434;DHT22;26146;51.114;5.654;2023-05-07T12:35:43;18.20;99.90
40434;DHT22;26146;51.114;5.654;2023-05-07T12:39:48;18.20;99.90
40434;DHT22;26146;51.114;5.654;2023-05-07T12:43:49;18.20;99.90
40434;DHT22;26146;51.114;5.654;2023-05-07T12:47:50;18.50;99.90
40434;DHT22;26146;51.114;5.654;2023-05-07T12:51:52;18.60;99.90
40434;DHT22;26146;51.114;5.654;2023-05-07T12:55:55;19.00;99.90
40434;DHT22;26146;51.114;5.654;2023-05-07T12:59:57;19.40;99.90
40434;DHT22;26146;51.114;5.654;2023-05-07T13:04:03;20.00;99.90
40434;DHT22;26146;51.114;5.654;2023-05-07T13:08:04;20.40;99.90
40434;DHT22;26146;51.114;5.654;2023-05-07T13:12:06;20.80;99.90
40434;DHT22;26146;51.114;5.654;2023-05-07T13:16:09;20.70;99.90
40434;DHT22;26146;51.114;5.654;2023-05-07T13:20:11;20.70;99.90
40434;DHT22;26146;51.114;5.654;2023-05-07T13:24:13;20.80;99.90
40434;DHT22;26146;51.114;5.654;2023-05-07T13:28:14;20.90;99.90
40434;DHT22;26146;51.114;5.654;2023-05-07T13:32:15;21.00;99.90
40434;DHT22;26146;51.114;5.654;2023-05-07T13:36:16;21.40;99.90
40434;DHT22;26146;51.114;5.654;2023-05-07T13:40:18;21.70;99.90
40434;DHT22;26146;51.114;5.654;2023-05-07T13:44:20;21.80;99.90
40434;DHT22;26146;51.114;5.654;2023-05-07T13:48:21;22.00;99.90
40434;DHT22;26146;51.114;5.654;2023-05-07T13:52:22;22.10;99.90
40434;DHT22;26146;51.114;5.654;2023-05-07T13:56:23;22.20;99.90
40434;DHT22;26146;51.114;5.654;2023-05-07T14:00:25;22.50;99.90
40434;DHT22;26146;51.114;5.654;2023-05-07T14:04:27;22.90;99.90
40434;DHT22;26146;51.114;5.654;2023-05-07T14:08:28;22.90;99.90
40434;DHT22;26146;51.114;5.654;2023-05-07T14:12:29;23.30;99.90
40434;DHT22;26146;51.114;5.654;2023-05-07T14:16:30;23.30;98.90
40434;DHT22;26146;51.114;5.654;2023-05-07T14:20:31;23.00;99.20
40434;DHT22;26146;51.114;5.654;2023-05-07T14:24:33;22.60;99.70
40434;DHT22;26146;51.114;5.654;2023-05-07T14:28:34;22.60;99.90
40434;DHT22;26146;51.114;5.654;2023-05-07T14:32:35;22.50;99.90
40434;DHT22;26146;51.114;5.654;2023-05-07T14:36:36;22.50;99.90
40434;DHT22;26146;51.114;5.654;2023-05-07T14:40:38;22.40;99.90
40434;DHT22;26146;51.114;5.654;2023-05-07T14:44:39;22.20;99.90
40434;DHT22;26146;51.114;5.654;2023-05-07T14:48:43;22.10;99.90
40434;DHT22;26146;51.114;5.654;2023-05-07T14:52:45;22.00;99.90
40434;DHT22;26146;51.114;5.654;2023-05-07T14:56:46;22.10;99.90
40434;DHT22;26146;51.114;5.654;2023-05-07T15:00:47;22.10;99.90
40434;DHT22;26146;51.114;5.654;2023-05-07T15:04:49;21.90;99.90
40434;DHT22;26146;51.114;5.654;2023-05-07T15:08:50;21.80;99.90
40434;DHT22;26146;51.114;5.654;2023-05-07T15:12:51;21.80;99.90
40434;DHT22;26146;51.114;5.654;2023-05-07T15:16:52;22.00;99.90
40434;DHT22;26146;51.114;5.654;2023-05-07T15:20:54;21.90;99.90
40434;DHT22;26146;51.114;5.654;2023-05-07T15:24:56;21.90;99.90
40434;DHT22;26146;51.114;5.654;2023-05-07T15:28:57;21.90;99.90
40434;DHT22;26146;51.114;5.654;2023-05-07T15:32:59;22.00;99.90
40434;DHT22;26146;51.114;5.654;2023-05-07T15:37:00;22.00;99.90
40434;DHT22;26146;51.114;5.654;2023-05-07T15:41:01;21.90;99.90
40434;DHT22;26146;51.114;5.654;2023-05-07T15:45:02;21.90;99.90
40434;DHT22;26146;51.114;5.654;2023-05-07T15:49:03;21.90;99.90
40434;DHT22;26146;51.114;5.654;2023-05-07T15:53:05;21.70;99.90
40434;DHT22;26146;51.114;5.654;2023-05-07T15:57:06;21.80;99.90
40434;DHT22;26146;51.114;5.654;2023-05-07T16:01:07;21.50;99.90
40434;DHT22;26146;51.114;5.654;2023-05-07T16:05:09;21.40;99.90
40434;DHT22;26146;51.114;5.654;2023-05-07T16:09:10;21.50;99.90
40434;DHT22;26146;51.114;5.654;2023-05-07T16:13:11;21.60;99.90
40434;DHT22;26146;51.114;5.654;2023-05-07T16:17:12;21.60;99.90
40434;DHT22;26146;51.114;5.654;2023-05-07T16:21:13;21.60;99.90
40434;DHT22;26146;51.114;5.654;2023-05-07T16:25:15;21.50;99.90
40434;DHT22;26146;51.114;5.654;2023-05-07T16:29:16;21.50;99.90
40434;DHT22;26146;51.114;5.654;2023-05-07T16:33:17;21.60;99.90
40434;DHT22;26146;51.114;5.654;2023-05-07T16:37:19;21.50;99.90
40434;DHT22;26146;51.114;5.654;2023-05-07T16:41:21;21.40;99.90
40434;DHT22;26146;51.114;5.654;2023-05-07T16:45:22;21.20;99.90
40434;DHT22;26146;51.114;5.654;2023-05-07T16:49:24;21.40;99.90
40434;DHT22;26146;51.114;5.654;2023-05-07T16:53:25;21.20;99.90
40434;DHT22;26146;51.114;5.654;2023-05-07T16:57:27;21.10;99.90
40434;DHT22;26146;51.114;5.654;2023-05-07T17:01:28;21.30;99.90
40434;DHT22;26146;51.114;5.654;2023-05-07T17:05:32;21.30;99.90
40434;DHT22;26146;51.114;5.654;2023-05-07T17:09:33;21.10;99.90
40434;DHT22;26146;51.114;5.654;2023-05-07T17:13:34;21.10;99.90
40434;DHT22;26146;51.114;5.654;2023-05-07T17:17:36;21.10;99.90
40434;DHT22;26146;51.114;5.654;2023-05-07T17:21:37;21.10;99.90
40434;DHT22;26146;51.114;5.654;2023-05-07T17:25:38;21.20;99.90
40434;DHT22;26146;51.114;5.654;2023-05-07T17:29:39;21.20;99.90
40434;DHT22;26146;51.114;5.654;2023-05-07T17:33:40;21.30;99.90
40434;DHT22;26146;51.114;5.654;2023-05-07T17:37:41;21.30;99.90
40434;DHT22;26146;51.114;5.654;2023-05-07T17:41:46;21.30;99.90
40434;DHT22;26146;51.114;5.654;2023-05-07T17:45:47;20.90;99.90
40434;DHT22;26146;51.114;5.654;2023-05-07T17:49:49;21.00;99.90
40434;DHT22;26146;51.114;5.654;2023-05-07T17:53:50;20.90;99.90
40434;DHT22;26146;51.114;5.654;2023-05-07T17:57:52;20.80;99.90
40434;DHT22;26146;51.114;5.654;2023-05-07T18:01:53;20.80;99.90
40434;DHT22;26146;51.114;5.654;2023-05-07T18:05:54;20.80;99.90
40434;DHT22;26146;51.114;5.654;2023-05-07T18:09:55;20.60;99.90
40434;DHT22;26146;51.114;5.654;2023-05-07T18:13:57;20.40;99.90
40434;DHT22;26146;51.114;5.654;2023-05-07T18:17:58;20.30;99.90
40434;DHT22;26146;51.114;5.654;2023-05-07T18:21:59;20.20;99.90
40434;DHT22;26146;51.114;5.654;2023-05-07T18:26:01;20.20;99.90
40434;DHT22;26146;51.114;5.654;2023-05-07T18:30:02;20.20;99.90
40434;DHT22;26146;51.114;5.654;2023-05-07T18:34:05;20.20;99.90
40434;DHT22;26146;51.114;5.654;2023-05-07T18:38:06;20.10;99.90
40434;DHT22;26146;51.114;5.654;2023-05-07T18:42:07;20.00;99.90
40434;DHT22;26146;51.114;5.654;2023-05-07T18:46:09;19.90;99.90
40434;DHT22;26146;51.114;5.654;2023-05-07T18:50:10;19.80;99.90
40434;DHT22;26146;51.114;5.654;2023-05-07T18:54:12;19.80;99.90
40434;DHT22;26146;51.114;5.654;2023-05-07T18:58:13;19.70;99.90
40434;DHT22;26146;51.114;5.654;2023-05-07T19:02:16;19.50;99.90
40434;DHT22;26146;51.114;5.654;2023-05-07T19:06:17;19.60;99.90
40434;DHT22;26146;51.114;5.654;2023-05-07T19:10:21;19.50;99.90
40434;DHT22;26146;51.114;5.654;2023-05-07T19:14:22;19.60;99.90
40434;DHT22;26146;51.114;5.654;2023-05-07T19:18:24;19.70;99.90
40434;DHT22;26146;51.114;5.654;2023-05-07T19:22:25;19.40;99.90
40434;DHT22;26146;51.114;5.654;2023-05-07T19:26:27;19.50;99.90
40434;DHT22;26146;51.114;5.654;2023-05-07T19:30:28;19.40;99.90
40434;DHT22;26146;51.114;5.654;2023-05-07T19:34:29;19.30;99.90
40434;DHT22;26146;51.114;5.654;2023-05-07T19:38:31;19.20;99.90
40434;DHT22;26146;51.114;5.654;2023-05-07T19:42:32;19.10;99.90
40434;DHT22;26146;51.114;5.654;2023-05-07T19:46:33;19.10;99.90
40434;DHT22;26146;51.114;5.654;2023-05-07T19:50:35;19.10;99.90
40434;DHT22;26146;51.114;5.654;2023-05-07T19:54:37;19.10;99.90
40434;DHT22;26146;51.114;5.654;2023-05-07T19:58:38;19.00;99.90
40434;DHT22;26146;51.114;5.654;2023-05-07T20:02:39;19.00;99.90
40434;DHT22;26146;51.114;5.654;2023-05-07T20:06:40;18.90;99.90
40434;DHT22;26146;51.114;5.654;2023-05-07T20:10:42;18.80;99.90
40434;DHT22;26146;51.114;5.654;2023-05-07T20:14:43;18.80;99.90
40434;DHT22;26146;51.114;5.654;2023-05-07T20:18:44;18.80;99.90
40434;DHT22;26146;51.114;5.654;2023-05-07T20:22:45;18.70;99.90
40434;DHT22;26146;51.114;5.654;2023-05-07T20:26:46;18.70;99.90
40434;DHT22;26146;51.114;5.654;2023-05-07T20:30:48;18.70;99.90
40434;DHT22;26146;51.114;5.654;2023-05-07T20:34:49;18.70;99.90
40434;DHT22;26146;51.114;5.654;2023-05-07T20:38:50;18.60;99.90
40434;DHT22;26146;51.114;5.654;2023-05-07T20:42:52;18.50;99.90
40434;DHT22;26146;51.114;5.654;2023-05-07T20:46:53;18.30;99.90
40434;DHT22;26146;51.114;5.654;2023-05-07T20:50:58;18.30;99.90
40434;DHT22;26146;51.114;5.654;2023-05-07T20:54:59;18.30;99.90
40434;DHT22;26146;51.114;5.654;2023-05-07T20:59:01;18.30;99.90
40434;DHT22;26146;51.114;5.654;2023-05-07T21:03:02;18.20;99.90
40434;DHT22;26146;51.114;5.654;2023-05-07T21:07:03;18.30;99.90
40434;DHT22;26146;51.114;5.654;2023-05-07T21:11:04;18.20;99.90
40434;DHT22;26146;51.114;5.654;2023-05-07T21:15:06;18.20;99.90
40434;DHT22;26146;51.114;5.654;2023-05-07T21:19:07;18.10;99.90
40434;DHT22;26146;51.114;5.654;2023-05-07T21:23:09;18.20;99.90
40434;DHT22;26146;51.114;5.654;2023-05-07T21:27:10;17.80;99.90
40434;DHT22;26146;51.114;5.654;2023-05-07T21:31:11;17.80;99.90
40434;DHT22;26146;51.114;5.654;2023-05-07T21:35:12;17.80;99.90
40434;DHT22;26146;51.114;5.654;2023-05-07T21:39:13;17.70;99.90
40434;DHT22;26146;51.114;5.654;2023-05-07T21:43:15;17.60;99.90
40434;DHT22;26146;51.114;5.654;2023-05-07T21:47:16;17.60;99.90
40434;DHT22;26146;51.114;5.654;2023-05-07T21:51:17;17.60;99.90
40434;DHT22;26146;51.114;5.654;2023-05-07T21:55:18;17.60;99.90
40434;DHT22;26146;51.114;5.654;2023-05-07T21:59:19;17.60;99.90
40434;DHT22;26146;51.114;5.654;2023-05-07T22:03:20;17.60;99.90
40434;DHT22;26146;51.114;5.654;2023-05-07T22:07:21;17.70;99.90
40434;DHT22;26146;51.114;5.654;2023-05-07T22:11:22;17.70;99.90
40434;DHT22;26146;51.114;5.654;2023-05-07T22:15:23;17.70;99.90
40434;DHT22;26146;51.114;5.654;2023-05-07T22:19:24;17.80;99.90
40434;DHT22;26146;51.114;5.654;2023-05-07T22:23:25;17.80;99.90
40434;DHT22;26146;51.114;5.654;2023-05-07T22:27:27;17.80;99.90
40434;DHT22;26146;51.114;5.654;2023-05-07T22:31:30;17.70;99.90
40434;DHT22;26146;51.114;5.654;2023-05-07T22:35:31;17.70;99.90
40434;DHT22;26146;51.114;5.654;2023-05-07T22:39:32;17.70;99.90
40434;DHT22;26146;51.114;5.654;2023-05-07T22:43:34;17.70;99.90
40434;DHT22;26146;51.114;5.654;2023-05-07T22:47:36;17.90;99.90
40434;DHT22;26146;51.114;5.654;2023-05-07T22:51:37;17.80;99.90
40434;DHT22;26146;51.114;5.654;2023-05-07T22:55:38;17.80;99.90
40434;DHT22;26146;51.114;5.654;2023-05-07T22:59:39;17.70;99.90
40434;DHT22;26146;51.114;5.654;2023-05-07T23:03:40;17.60;99.90
40434;DHT22;26146;51.114;5.654;2023-05-07T23:07:41;17.60;99.90
40434;DHT22;26146;51.114;5.654;2023-05-07T23:11:42;17.60;99.90
40434;DHT22;26146;51.114;5.654;2023-05-07T23:15:43;17.50;99.90
40434;DHT22;26146;51.114;5.654;2023-05-07T23:19:44;17.50;99.90
40434;DHT22;26146;51.114;5.654;2023-05-07T23:23:46;17.50;99.90
40434;DHT22;26146;51.114;5.654;2023-05-07T23:27:50;17.50;99.90
40434;DHT22;26146;51.114;5.654;2023-05-07T23:31:51;17.50;99.90
40434;DHT22;26146;51.114;5.654;2023-05-07T23:36:04;17.50;99.90
40434;DHT22;26146;51.114;5.654;2023-05-07T23:40:06;17.40;99.90
40434;DHT22;26146;51.114;5.654;2023-05-07T23:44:07;17.30;99.90
40434;DHT22;26146;51.114;5.654;2023-05-07T23:48:08;17.30;99.90
40434;DHT22;26146;51.114;5.654;2023-05-07T23:52:09;17.40;99.90
40434;DHT22;26146;51.114;5.654;2023-05-07T23:56:10;17.10;99.90
